Chain of Rocks, Missouri
Current Conditions -  °F | °C
As of 1:54 AM on Saturday 20 Dec 2014 (Local Time) from KSET Reporting Station
Overcast Overcast  
Wind Chill: 29°   Ceiling: 2900
Heat Index: 34°   Visibility: 7mi
Dew Point: 30°   Wind: 6mph
Humidity: 85%   Direction: 90°E
Pressure: 30.27"   Gusts: NA
Location:  38.9362°N, 90.7728°W
Report Text: KSET 200754Z AUTO 09005KT 7SM BKN029 OVC050 01/M01 A3027 RMK AO2 SLP252 T00111011
Loading
Personal Weather Stations






























Interactive Weather Map New forecast layout! Learn more

10-Day Weather Forecast

Advertisements
Track Severe Weather on mobile